Terminal Aerodrome Forecast
Issued by NWS Norman, OK

Home | Current Version | Previous Version | Text Only | Print | Product List | Glossary On
Versions: 1 2 3 4 5 6 7 8 9 10 11 12 13 14
000
FTUS44 KOUN 302054 AAA
TAFSPS
TAF AMD
KSPS 302054Z 3021/3118 08012KT P6SM VCTS BKN050CB BKN120
      TEMPO 3021/3024 4SM -TSRA BKN040CB
     FM310100 35005KT P6SM SCT030 SCT100
     FM311500 01005KT P6SM OVC050 PROB30 3115/3118 4SM -TSRA
      OVC050CB=

USA.gov is the U.S. government's official web portal to all federal, state and local government web resources and services.